Time;durP1;ratioP1;P1;durP2;ratioP2;P2;SDS_P1;SDS_P2;PMS_P1;PMS_P2;Temp;Humidity;BMP_temperature;BMP_pressure;BME280_temperature;BME280_humidity;BME280_pressure;Samples;Min_cycle;Max_cycle;Signal;HPM_P1;HPM_P2
2023/10/19 00:00:40;;;;;;;0.00;0.00;;;;;;;;;;5025953;28;20080;-83
2023/10/19 00:03:08;;;;;;;0.00;0.00;;;;;;;;;;5043303;28;20028;-83
2023/10/19 00:05:34;;;;;;;0.00;0.00;;;;;;;;;;5042751;28;20124;-82
2023/10/19 00:08:05;;;;;;;0.00;0.00;;;;;;;;;;5058454;28;20060;-81
2023/10/19 00:10:34;;;;;;;0.00;0.00;;;;;;;;;;5026970;28;20445;-81
2023/10/19 00:13:03;;;;;;;0.00;0.00;;;;;;;;;;5076407;28;20027;-81
2023/10/19 00:15:34;;;;;;;0.00;0.00;;;;;;;;;;5026300;28;20035;-81
2023/10/19 00:18:07;;;;;;;;;;;;;;;;;;5069719;28;20050;-82
2023/10/19 00:20:50;;;;;;;0.00;0.00;;;;;;;;;;5095979;28;19993;-82
2023/10/19 00:23:18;;;;;;;0.00;0.00;;;;;;;;;;5095551;28;20043;-82
2023/10/19 00:25:50;;;;;;;0.00;0.00;;;;;;;;;;5061283;28;20027;-82
2023/10/19 00:28:17;;;;;;;0.00;0.00;;;;;;;;;;5061318;28;20464;-83
2023/10/19 00:30:45;;;;;;;0.00;0.00;;;;;;;;;;5061663;28;20028;-82
2023/10/19 00:33:18;;;;;;;0.00;0.00;;;;;;;;;;5078161;28;20115;-81
2023/10/19 00:38:50;;;;;;;0.00;0.00;;;;;;;;;;4994046;28;20050;-83
2023/10/19 00:41:27;;;;;;;0.00;0.00;;;;;;;;;;4962792;28;20030;-81
2023/10/19 00:44:16;;;;;;;0.00;0.00;;;;;;;;;;5034509;28;20044;-82
2023/10/19 00:49:09;;;;;;;0.00;0.00;;;;;;;;;;5078486;28;20032;-82
2023/10/19 00:52:11;;;;;;;0.00;0.00;;;;;;;;;;5061766;28;20039;-82
2023/10/19 00:54:41;;;;;;;0.00;0.00;;;;;;;;;;5078839;28;20148;-83
2023/10/19 00:57:12;;;;;;;0.00;0.00;;;;;;;;;;5078469;28;20103;-83
2023/10/19 00:59:48;;;;;;;0.00;0.00;;;;;;;;;;5061515;28;20036;-82
2023/10/19 01:02:19;;;;;;;0.00;0.00;;;;;;;;;;5077708;28;20036;-81
2023/10/19 01:04:50;;;;;;;0.00;0.00;;;;;;;;;;5061457;28;20449;-80
2023/10/19 01:07:21;;;;;;;0.00;0.00;;;;;;;;;;5078120;28;20028;-81
2023/10/19 01:09:47;;;;;;;0.00;0.00;;;;;;;;;;5045941;28;20118;-81
2023/10/19 01:17:56;;;;;;;0.00;0.00;;;;;;;;;;5080012;28;20024;-80
2023/10/19 01:28:22;;;;;;;0.00;0.00;;;;;;;;;;5062022;28;20445;-81
2023/10/19 01:30:51;;;;;;;0.00;0.00;;;;;;;;;;5060776;28;20362;-81
2023/10/19 01:33:19;;;;;;;0.00;0.00;;;;;;;;;;5077558;28;20366;-81
2023/10/19 01:38:33;;;;;;;0.00;0.00;;;;;;;;;;5065037;28;20192;-82
2023/10/19 01:40:59;;;;;;;0.00;0.00;;;;;;;;;;5060622;28;20182;-82
2023/10/19 01:43:30;;;;;;;0.00;0.00;;;;;;;;;;5073945;28;20028;-82
2023/10/19 01:45:56;;;;;;;0.00;0.00;;;;;;;;;;5094589;28;20024;-82
2023/10/19 01:48:28;;;;;;;0.00;0.00;;;;;;;;;;5059906;28;20346;-81
2023/10/19 01:50:53;;;;;;;0.00;0.00;;;;;;;;;;5061534;28;20366;-80
2023/10/19 01:53:25;;;;;;;0.00;0.00;;;;;;;;;;5076608;28;20054;-80
2023/10/19 01:55:57;;;;;;;0.00;0.00;;;;;;;;;;5044925;28;20082;-81
2023/10/19 01:58:24;;;;;;;0.00;0.00;;;;;;;;;;5076398;28;20031;-82
2023/10/19 02:00:54;;;;;;;0.00;0.00;;;;;;;;;;5076799;28;20105;-81
2023/10/19 02:03:21;;;;;;;0.00;0.00;;;;;;;;;;5060393;28;20095;-82
2023/10/19 02:05:49;;;;;;;0.00;0.00;;;;;;;;;;5059237;28;20093;-82
2023/10/19 02:08:16;;;;;;;0.00;0.00;;;;;;;;;;5043872;28;20032;-82
2023/10/19 02:10:46;;;;;;;0.00;0.00;;;;;;;;;;5059607;28;20035;-82
2023/10/19 02:13:15;;;;;;;;;;;;;;;;;;5060067;28;20063;-82
2023/10/19 02:15:42;;;;;;;0.00;0.00;;;;;;;;;;5076659;28;19912;-81
2023/10/19 02:18:08;;;;;;;0.00;0.00;;;;;;;;;;5076162;28;20028;-81
2023/10/19 02:20:34;;;;;;;0.00;0.00;;;;;;;;;;5061589;28;20035;-81
2023/10/19 02:23:03;;;;;;;0.00;0.00;;;;;;;;;;5096521;28;20448;-81
2023/10/19 02:25:34;;;;;;;0.00;0.00;;;;;;;;;;5114152;28;20028;-80
2023/10/19 02:27:59;;;;;;;0.00;0.00;;;;;;;;;;5097040;28;20168;-81
2023/10/19 02:30:25;;;;;;;0.00;0.00;;;;;;;;;;5096257;28;20512;-81
2023/10/19 02:32:50;;;;;;;0.00;0.00;;;;;;;;;;5096265;28;20047;-80
2023/10/19 02:35:16;;;;;;;0.00;0.00;;;;;;;;;;5096372;28;20020;-80
2023/10/19 02:37:41;;;;;;;0.00;0.00;;;;;;;;;;5114298;28;20358;-81
2023/10/19 02:40:19;;;;;;;0.00;0.00;;;;;;;;;;5114249;28;20055;-82
2023/10/19 02:42:48;;;;;;;0.00;0.00;;;;;;;;;;5098010;28;20023;-82
2023/10/19 02:45:18;;;;;;;0.00;0.00;;;;;;;;;;5062826;28;20031;-80
2023/10/19 02:47:44;;;;;;;0.00;0.00;;;;;;;;;;5096203;28;20034;-81
2023/10/19 02:50:13;;;;;;;0.00;0.00;;;;;;;;;;5077309;28;20016;-82
2023/10/19 02:52:40;;;;;;;0.00;0.00;;;;;;;;;;5039416;28;20078;-82
2023/10/19 02:55:07;;;;;;;0.00;0.00;;;;;;;;;;5038920;28;20052;-81
2023/10/19 02:57:32;;;;;;;0.00;0.00;;;;;;;;;;5039024;28;20520;-81
2023/10/19 02:59:59;;;;;;;0.00;0.00;;;;;;;;;;5055711;28;20021;-83
2023/10/19 03:02:26;;;;;;;0.00;0.00;;;;;;;;;;5055782;28;20032;-80
2023/10/19 03:04:53;;;;;;;0.00;0.00;;;;;;;;;;5055682;28;20513;-81
2023/10/19 03:07:19;;;;;;;0.00;0.00;;;;;;;;;;5055499;28;20048;-80
2023/10/19 03:09:53;;;;;;;0.00;0.00;;;;;;;;;;5055219;28;20055;-81
2023/10/19 03:12:19;;;;;;;0.00;0.00;;;;;;;;;;5041205;28;20024;-81
2023/10/19 03:14:48;;;;;;;0.00;0.00;;;;;;;;;;5055252;28;20032;-81
2023/10/19 03:17:14;;;;;;;0.00;0.00;;;;;;;;;;5057713;28;20028;-81
2023/10/19 03:19:39;;;;;;;0.03;0.00;;;;;;;;;;5026372;28;20090;-81
2023/10/19 03:22:06;;;;;;;0.00;0.00;;;;;;;;;;5059312;28;20442;-82
2023/10/19 03:24:42;;;;;;;0.00;0.00;;;;;;;;;;5097396;28;20023;-81
2023/10/19 03:29:47;;;;;;;0.10;0.00;;;;;;;;;;5084801;28;20024;-82
2023/10/19 03:32:14;;;;;;;0.00;0.00;;;;;;;;;;5083189;28;21115;-82
2023/10/19 03:34:47;;;;;;;0.00;0.00;;;;;;;;;;5099740;28;20034;-82
2023/10/19 03:37:14;;;;;;;0.00;0.00;;;;;;;;;;5085079;28;20027;-82
2023/10/19 03:39:40;;;;;;;0.00;0.00;;;;;;;;;;5082543;28;20066;-81
2023/10/19 03:42:06;;;;;;;0.00;0.00;;;;;;;;;;5117575;28;20084;-81
2023/10/19 03:47:11;;;;;;;0.00;0.00;;;;;;;;;;5100550;28;20072;-82
2023/10/19 03:49:39;;;;;;;0.00;0.00;;;;;;;;;;5067179;28;20032;-81
2023/10/19 03:54:42;;;;;;;0.00;0.00;;;;;;;;;;5083943;28;20032;-83
2023/10/19 03:57:29;;;;;;;0.00;0.00;;;;;;;;;;5061971;28;20061;-84
2023/10/19 03:59:57;;;;;;;0.00;0.00;;;;;;;;;;5080874;28;20357;-82
2023/10/19 04:02:28;;;;;;;0.00;0.00;;;;;;;;;;5096478;28;20020;-83
2023/10/19 04:04:55;;;;;;;0.00;0.00;;;;;;;;;;5062555;28;20028;-83
2023/10/19 04:07:21;;;;;;;0.00;0.00;;;;;;;;;;5044864;28;20376;-83
2023/10/19 04:12:37;;;;;;;0.00;0.00;;;;;;;;;;5081002;28;20016;-83
2023/10/19 04:15:17;;;;;;;0.00;0.00;;;;;;;;;;5045124;28;20376;-83
2023/10/19 04:17:46;;;;;;;0.00;0.00;;;;;;;;;;5065509;28;20027;-82
2023/10/19 04:22:44;;;;;;;0.00;0.00;;;;;;;;;;5062808;28;20031;-86
2023/10/19 04:25:12;;;;;;;0.00;0.00;;;;;;;;;;5056759;28;20021;-85
2023/10/19 04:27:42;;;;;;;0.00;0.00;;;;;;;;;;5058342;28;20054;-86
2023/10/19 04:30:18;;;;;;;0.00;0.00;;;;;;;;;;5065596;28;20407;-86
2023/10/19 04:32:44;;;;;;;0.00;0.00;;;;;;;;;;5067591;28;20031;-85
2023/10/19 04:35:09;;;;;;;0.00;0.00;;;;;;;;;;5052553;28;20027;-85
2023/10/19 04:37:42;;;;;;;0.00;0.00;;;;;;;;;;5045576;28;20032;-86
2023/10/19 04:40:09;;;;;;;0.00;0.00;;;;;;;;;;5062445;28;20063;-85
2023/10/19 04:42:36;;;;;;;0.00;0.00;;;;;;;;;;5046603;28;20036;-87
2023/10/19 04:45:05;;;;;;;0.00;0.00;;;;;;;;;;5046860;28;20127;-86
2023/10/19 04:47:58;;;;;;;0.00;0.00;;;;;;;;;;5079162;28;20391;-86
2023/10/19 04:51:09;;;;;;;0.00;0.00;;;;;;;;;;5062036;28;20044;-86
2023/10/19 04:53:34;;;;;;;;;;;;;;;;;;5075136;28;20393;-83
2023/10/19 04:56:20;;;;;;;0.20;0.00;;;;;;;;;;5070176;28;19916;-87
2023/10/19 04:59:58;;;;;;;0.00;0.00;;;;;;;;;;5069796;28;20040;-85
2023/10/19 05:06:58;;;;;;;;;;;;;;;;;;;;;
2023/10/19 05:26:10;;;;;;;0.00;0.00;;;;;;;;;;6064115;22;20015;-87
2023/10/19 05:28:36;;;;;;;0.00;0.00;;;;;;;;;;5075250;28;20024;-75
2023/10/19 05:31:01;;;;;;;0.00;0.00;;;;;;;;;;5059755;28;20032;-76
2023/10/19 05:33:29;;;;;;;0.00;0.00;;;;;;;;;;5072522;28;20098;-77
2023/10/19 05:38:28;;;;;;;0.00;0.00;;;;;;;;;;5448031;22;20083;-84
2023/10/19 05:41:03;;;;;;;0.00;0.00;;;;;;;;;;5036956;28;20033;-84
2023/10/19 05:53:50;;;;;;;;;;;;;;;;;;;;;
2023/10/19 05:56:21;;;;;;;0.00;0.00;;;;;;;;;;4970392;28;20106;-84
2023/10/19 05:59:10;;;;;;;0.00;0.00;;;;;;;;;;5045534;28;20035;-86
2023/10/19 06:10:03;;;;;;;0.00;0.00;;;;;;;;;;4825493;26;20078;-84
2023/10/19 06:12:48;;;;;;;0.00;0.00;;;;;;;;;;4985177;28;20042;-84
2023/10/19 06:21:22;;;;;;;0.00;0.00;;;;;;;;;;5105625;22;20493;-84
2023/10/19 06:23:51;;;;;;;0.00;0.00;;;;;;;;;;5061061;28;20039;-80
2023/10/19 06:29:45;;;;;;;0.00;0.00;;;;;;;;;;5099122;28;20526;-83
2023/10/19 06:32:44;;;;;;;0.00;0.00;;;;;;;;;;5082022;28;20104;-79
2023/10/19 06:35:11;;;;;;;0.00;0.00;;;;;;;;;;5085906;28;20417;-81
2023/10/19 06:37:36;;;;;;;0.00;0.00;;;;;;;;;;5079736;28;20036;-81
2023/10/19 06:40:02;;;;;;;0.00;0.00;;;;;;;;;;5067241;28;20036;-80
2023/10/19 06:42:28;;;;;;;0.00;0.00;;;;;;;;;;5091630;28;20113;-86
2023/10/19 06:49:00;;;;;;;0.00;0.00;;;;;;;;;;5086016;22;20056;-85
2023/10/19 06:51:29;;;;;;;0.00;0.00;;;;;;;;;;5046669;28;20049;-84
2023/10/19 06:53:55;;;;;;;0.00;0.00;;;;;;;;;;5028380;28;20573;-83
2023/10/19 06:56:21;;;;;;;0.00;0.00;;;;;;;;;;5042662;28;20048;-84
2023/10/19 06:59:29;;;;;;;0.00;0.00;;;;;;;;;;5046636;28;20028;-84
2023/10/19 07:13:32;;;;;;;0.00;0.00;;;;;;;;;;4295282;26;20044;-86
2023/10/19 07:16:04;;;;;;;0.00;0.00;;;;;;;;;;5048621;28;20048;-88
2023/10/19 07:18:30;;;;;;;0.00;0.00;;;;;;;;;;5048518;28;20032;-85
2023/10/19 07:24:09;;;;;;;0.00;0.00;;;;;;;;;;5182875;22;20055;-85
2023/10/19 07:26:41;;;;;;;0.00;0.00;;;;;;;;;;5029333;28;20035;-82
2023/10/19 07:29:10;;;;;;;0.00;0.00;;;;;;;;;;5047691;28;20055;-85
2023/10/19 07:31:47;;;;;;;0.00;0.00;;;;;;;;;;5036227;28;20079;-85
2023/10/19 07:34:16;;;;;;;0.00;0.00;;;;;;;;;;5050943;28;20029;-88
2023/10/19 07:36:45;;;;;;;0.00;0.00;;;;;;;;;;5042349;28;20136;-85
2023/10/19 07:39:18;;;;;;;0.00;0.00;;;;;;;;;;5070416;28;20453;-88
2023/10/19 07:41:44;;;;;;;0.00;0.00;;;;;;;;;;5055109;28;20089;-87
2023/10/19 07:44:11;;;;;;;0.00;0.00;;;;;;;;;;5052913;28;20576;-87
2023/10/19 07:46:37;;;;;;;0.00;0.00;;;;;;;;;;5052249;28;20035;-87
2023/10/19 07:49:03;;;;;;;0.00;0.00;;;;;;;;;;5102333;28;20063;-85
2023/10/19 07:51:29;;;;;;;0.00;0.00;;;;;;;;;;5044022;28;20024;-86
2023/10/19 07:54:01;;;;;;;0.00;0.00;;;;;;;;;;5046015;28;20017;-86
2023/10/19 07:56:29;;;;;;;0.00;0.00;;;;;;;;;;5050303;28;20366;-88
2023/10/19 07:59:23;;;;;;;0.00;0.00;;;;;;;;;;5050269;28;20039;-87
2023/10/19 08:07:51;;;;;;;0.10;0.00;;;;;;;;;;5226006;22;20146;-83
2023/10/19 08:17:18;;;;;;;0.00;0.00;;;;;;;;;;5149821;22;20073;-83
2023/10/19 08:19:45;;;;;;;0.00;0.00;;;;;;;;;;5069141;28;20045;-88
2023/10/19 08:25:39;;;;;;;0.28;0.00;;;;;;;;;;5110425;22;20130;-83
2023/10/19 08:28:37;;;;;;;0.00;0.00;;;;;;;;;;5104363;28;20694;-86
2023/10/19 08:35:01;;;;;;;0.00;0.00;;;;;;;;;;5061016;22;20073;-85
2023/10/19 08:37:46;;;;;;;0.00;0.00;;;;;;;;;;5077160;28;20040;-84
2023/10/19 08:41:06;;;;;;;0.00;0.00;;;;;;;;;;5081489;28;20117;-83
2023/10/19 08:44:17;;;;;;;;;;;;;;;;;;5082952;28;20044;-86
2023/10/19 08:49:22;;;;;;;0.00;0.00;;;;;;;;;;5099710;22;20128;-82
2023/10/19 08:54:29;;;;;;;0.00;0.00;;;;;;;;;;5906126;22;20040;-79
2023/10/19 09:03:21;;;;;;;0.00;0.00;;;;;;;;;;5108398;22;20155;-80
2023/10/19 09:06:41;;;;;;;;;;;;;;;;;;;;;
2023/10/19 09:12:29;;;;;;;0.00;0.00;;;;;;;;;;5919673;22;20736;-81
2023/10/19 09:18:30;;;;;;;0.00;0.00;;;;;;;;;;5085899;28;20043;-87
2023/10/19 09:21:07;;;;;;;0.00;0.00;;;;;;;;;;5056848;28;20056;-88
2023/10/19 09:24:18;;;;;;;0.00;0.00;;;;;;;;;;5091924;28;20032;-84
2023/10/19 09:30:08;;;;;;;0.00;0.00;;;;;;;;;;5110568;22;20431;-86
2023/10/19 09:32:37;;;;;;;0.00;0.00;;;;;;;;;;5082843;28;20039;-85
2023/10/19 09:35:08;;;;;;;0.00;0.00;;;;;;;;;;5083798;22;20056;-83
2023/10/19 09:37:59;;;;;;;0.00;0.00;;;;;;;;;;5080931;28;20120;-85
2023/10/19 09:41:27;;;;;;;;;;;;;;;;;;;;;
2023/10/19 09:44:41;;;;;;;0.00;0.00;;;;;;;;;;5095042;28;20060;-93
2023/10/19 09:47:19;;;;;;;0.00;0.00;;;;;;;;;;5092597;28;20066;-89
2023/10/19 09:49:52;;;;;;;0.00;0.00;;;;;;;;;;5066831;28;20032;-91
2023/10/19 09:52:35;;;;;;;0.00;0.00;;;;;;;;;;5053093;28;20051;-92
2023/10/19 09:55:35;;;;;;;0.00;0.00;;;;;;;;;;5074846;28;20040;-90
2023/10/19 09:58:10;;;;;;;0.00;0.00;;;;;;;;;;5074021;28;20024;-91
2023/10/19 10:01:28;;;;;;;0.00;0.00;;;;;;;;;;5092095;28;20032;-90
2023/10/19 10:04:35;;;;;;;0.00;0.00;;;;;;;;;;5078890;28;20039;-89
2023/10/19 10:09:43;;;;;;;0.00;0.00;;;;;;;;;;4750307;26;20064;-88
2023/10/19 10:12:21;;;;;;;0.00;0.00;;;;;;;;;;5070232;28;20028;-88
2023/10/19 10:15:07;;;;;;;0.00;0.00;;;;;;;;;;5084919;28;20028;-88
2023/10/19 10:18:24;;;;;;;0.00;0.00;;;;;;;;;;5061535;28;20028;-88
2023/10/19 10:21:25;;;;;;;0.00;0.00;;;;;;;;;;5074576;28;20092;-88
2023/10/19 10:24:02;;;;;;;0.00;0.00;;;;;;;;;;5070598;28;20096;-87
2023/10/19 10:26:30;;;;;;;0.00;0.00;;;;;;;;;;5054036;28;20036;-89
2023/10/19 10:29:24;;;;;;;0.00;0.00;;;;;;;;;;5035443;28;20065;-87
2023/10/19 10:31:50;;;;;;;0.00;0.00;;;;;;;;;;5054596;28;20028;-88
2023/10/19 10:34:42;;;;;;;0.00;0.00;;;;;;;;;;5034721;28;20354;-86
2023/10/19 10:37:10;;;;;;;0.00;0.00;;;;;;;;;;5062500;28;20048;-88
2023/10/19 10:39:37;;;;;;;0.00;0.00;;;;;;;;;;5045390;28;20108;-89
2023/10/19 10:42:04;;;;;;;0.00;0.00;;;;;;;;;;5047738;28;20035;-89
2023/10/19 10:44:47;;;;;;;0.00;0.00;;;;;;;;;;5016764;28;20029;-89
2023/10/19 10:47:29;;;;;;;0.00;0.00;;;;;;;;;;5035267;28;20061;-85
2023/10/19 10:49:58;;;;;;;0.00;0.00;;;;;;;;;;5032436;28;20086;-82
2023/10/19 10:52:57;;;;;;;0.00;0.00;;;;;;;;;;5033274;28;20040;-88
2023/10/19 10:55:25;;;;;;;0.00;0.00;;;;;;;;;;5068791;28;20029;-82
2023/10/19 11:07:36;;;;;;;0.00;0.00;;;;;;;;;;5045424;28;20071;-82
2023/10/19 11:19:01;;;;;;;0.00;0.00;;;;;;;;;;5061281;28;20049;-84
2023/10/19 11:21:29;;;;;;;0.00;0.00;;;;;;;;;;5090132;28;20055;-84
2023/10/19 11:24:01;;;;;;;0.00;0.00;;;;;;;;;;5074747;28;20063;-83
2023/10/19 11:26:29;;;;;;;0.00;0.00;;;;;;;;;;5092026;28;20465;-81
2023/10/19 11:29:01;;;;;;;0.00;0.00;;;;;;;;;;5066205;28;20012;-82
2023/10/19 11:31:37;;;;;;;0.00;0.00;;;;;;;;;;5087446;28;20036;-83
2023/10/19 11:34:03;;;;;;;0.00;0.00;;;;;;;;;;5065414;28;20454;-80
2023/10/19 11:36:29;;;;;;;0.00;0.00;;;;;;;;;;5081474;28;20016;-84
2023/10/19 11:38:54;;;;;;;0.00;0.00;;;;;;;;;;5076369;28;20097;-85
2023/10/19 11:41:20;;;;;;;0.00;0.00;;;;;;;;;;5079629;28;20054;-85
2023/10/19 11:43:55;;;;;;;0.00;0.00;;;;;;;;;;5052406;28;20025;-85
2023/10/19 11:46:31;;;;;;;0.00;0.00;;;;;;;;;;5062319;28;20078;-85
2023/10/19 11:48:56;;;;;;;0.00;0.00;;;;;;;;;;5044554;28;20063;-85
2023/10/19 11:51:25;;;;;;;0.00;0.00;;;;;;;;;;5077843;28;20076;-85
2023/10/19 11:53:56;;;;;;;0.00;0.00;;;;;;;;;;5046837;28;20029;-84
2023/10/19 11:56:25;;;;;;;0.00;0.00;;;;;;;;;;5062735;28;20032;-85
2023/10/19 11:59:18;;;;;;;0.00;0.00;;;;;;;;;;5078937;28;20036;-85
2023/10/19 12:01:44;;;;;;;0.00;0.00;;;;;;;;;;5060958;28;20046;-85
2023/10/19 12:04:27;;;;;;;0.00;0.00;;;;;;;;;;5026316;28;20151;-87
2023/10/19 12:07:24;;;;;;;0.00;0.00;;;;;;;;;;5046317;28;20094;-87
2023/10/19 12:09:50;;;;;;;0.00;0.00;;;;;;;;;;5047957;28;20040;-84
2023/10/19 12:12:45;;;;;;;0.00;0.00;;;;;;;;;;5062730;28;20032;-87
2023/10/19 12:15:12;;;;;;;0.00;0.00;;;;;;;;;;5063991;28;20506;-85
2023/10/19 12:17:41;;;;;;;0.25;0.00;;;;;;;;;;5031663;28;20039;-84
2023/10/19 12:20:14;;;;;;;0.00;0.00;;;;;;;;;;5049808;28;20032;-87
2023/10/19 12:29:58;;;;;;;0.00;0.00;;;;;;;;;;4989570;28;20030;-85
2023/10/19 12:32:26;;;;;;;0.10;0.00;;;;;;;;;;4980576;28;20038;-86
2023/10/19 12:34:57;;;;;;;0.00;0.00;;;;;;;;;;5004316;28;20034;-86
2023/10/19 12:37:24;;;;;;;0.00;0.00;;;;;;;;;;4975912;28;20033;-85
2023/10/19 12:39:59;;;;;;;0.00;0.00;;;;;;;;;;5023055;28;20034;-86
2023/10/19 12:42:25;;;;;;;0.10;0.00;;;;;;;;;;5065121;28;20040;-86
2023/10/19 12:45:02;;;;;;;0.00;0.00;;;;;;;;;;5050778;28;20021;-85
2023/10/19 12:51:03;;;;;;;0.00;0.00;;;;;;;;;;5766504;22;20480;-82
2023/10/19 12:53:28;;;;;;;0.00;0.00;;;;;;;;;;5061883;28;20097;-83
2023/10/19 12:55:54;;;;;;;0.00;0.00;;;;;;;;;;5078382;28;20028;-81
2023/10/19 12:58:22;;;;;;;0.00;0.00;;;;;;;;;;5095894;28;20120;-80
2023/10/19 13:00:51;;;;;;;0.00;0.00;;;;;;;;;;5097352;28;20038;-79
2023/10/19 13:03:18;;;;;;;0.00;0.00;;;;;;;;;;5095757;28;20373;-80
2023/10/19 13:05:46;;;;;;;0.00;0.00;;;;;;;;;;5077782;28;20032;-81
2023/10/19 13:08:15;;;;;;;0.00;0.00;;;;;;;;;;5077934;28;20027;-81
2023/10/19 13:10:42;;;;;;;0.22;0.00;;;;;;;;;;5078164;28;20131;-79
2023/10/19 13:13:11;;;;;;;0.00;0.00;;;;;;;;;;5096139;28;20118;-80
2023/10/19 13:15:37;;;;;;;0.30;0.00;;;;;;;;;;5096312;28;20060;-85
2023/10/19 13:18:05;;;;;;;0.00;0.00;;;;;;;;;;5077870;28;20032;-82
2023/10/19 13:20:34;;;;;;;0.00;0.00;;;;;;;;;;5061130;28;20040;-81
2023/10/19 13:23:03;;;;;;;0.00;0.00;;;;;;;;;;5079397;28;20035;-80
2023/10/19 13:26:31;;;;;;;0.00;0.00;;;;;;;;;;5096125;28;20030;-80
2023/10/19 13:28:27;;;;;;;0.00;0.00;;;;;;;;;;5081849;28;20365;-83
2023/10/19 13:30:53;;;;;;;0.00;0.00;;;;;;;;;;5095667;28;20322;-82
2023/10/19 13:33:26;;;;;;;0.00;0.00;;;;;;;;;;5095532;28;20028;-82
2023/10/19 13:35:52;;;;;;;0.00;0.00;;;;;;;;;;5068219;28;20014;-83
2023/10/19 13:38:20;;;;;;;0.00;0.00;;;;;;;;;;5094452;28;20031;-80
2023/10/19 13:40:45;;;;;;;0.00;0.00;;;;;;;;;;5080109;28;20034;-81
2023/10/19 13:43:14;;;;;;;0.00;0.00;;;;;;;;;;5095954;28;20039;-81
2023/10/19 13:45:42;;;;;;;0.28;0.00;;;;;;;;;;5077829;28;20370;-83
2023/10/19 13:48:09;;;;;;;0.00;0.00;;;;;;;;;;5060918;28;20130;-82
2023/10/19 13:50:35;;;;;;;0.00;0.00;;;;;;;;;;5095150;28;20028;-82
2023/10/19 13:53:02;;;;;;;0.00;0.00;;;;;;;;;;5060166;28;20051;-81
2023/10/19 13:55:28;;;;;;;0.00;0.00;;;;;;;;;;5077093;28;20131;-82
2023/10/19 13:57:54;;;;;;;0.00;0.00;;;;;;;;;;5088022;28;20028;-81
2023/10/19 14:00:40;;;;;;;0.00;0.00;;;;;;;;;;5103662;28;20040;-80
2023/10/19 14:03:06;;;;;;;0.00;0.00;;;;;;;;;;5079408;28;20057;-81
2023/10/19 14:05:48;;;;;;;0.00;0.00;;;;;;;;;;5077958;28;20122;-83
2023/10/19 14:08:14;;;;;;;0.03;0.00;;;;;;;;;;5062369;28;20369;-82
2023/10/19 14:10:43;;;;;;;0.00;0.00;;;;;;;;;;5061057;28;20357;-82
2023/10/19 14:13:09;;;;;;;0.00;0.00;;;;;;;;;;5094820;28;20119;-81
2023/10/19 14:15:34;;;;;;;0.00;0.00;;;;;;;;;;5076483;28;20031;-81
2023/10/19 14:18:00;;;;;;;0.00;0.00;;;;;;;;;;5094520;28;20458;-82
2023/10/19 14:20:28;;;;;;;0.00;0.00;;;;;;;;;;5094789;28;20123;-82
2023/10/19 14:22:56;;;;;;;0.00;0.00;;;;;;;;;;5076671;28;20051;-81
2023/10/19 14:25:23;;;;;;;0.00;0.00;;;;;;;;;;5078987;28;20032;-82
2023/10/19 14:27:50;;;;;;;0.00;0.00;;;;;;;;;;5076804;28;20445;-82
2023/10/19 14:30:21;;;;;;;0.00;0.00;;;;;;;;;;5070068;28;20032;-81
2023/10/19 14:32:47;;;;;;;0.00;0.00;;;;;;;;;;5102847;28;20032;-81
2023/10/19 14:35:14;;;;;;;0.00;0.00;;;;;;;;;;5094148;28;20438;-82
2023/10/19 14:37:42;;;;;;;0.00;0.00;;;;;;;;;;5076628;28;20032;-82
2023/10/19 14:40:09;;;;;;;0.00;0.00;;;;;;;;;;5076386;28;20049;-82
2023/10/19 14:42:36;;;;;;;0.00;0.00;;;;;;;;;;5094383;28;20362;-82
2023/10/19 14:45:09;;;;;;;0.00;0.00;;;;;;;;;;5076175;28;20059;-82
2023/10/19 14:47:36;;;;;;;0.00;0.00;;;;;;;;;;5094930;28;20088;-82
2023/10/19 14:50:01;;;;;;;0.00;0.00;;;;;;;;;;5094397;28;20051;-83
2023/10/19 14:52:27;;;;;;;0.00;0.00;;;;;;;;;;5076119;28;20466;-84
2023/10/19 14:54:58;;;;;;;0.00;0.00;;;;;;;;;;5094441;28;20031;-82
2023/10/19 14:57:24;;;;;;;0.00;0.00;;;;;;;;;;5093687;28;20039;-80
2023/10/19 14:59:50;;;;;;;0.00;0.00;;;;;;;;;;5059710;28;20081;-82
2023/10/19 15:02:17;;;;;;;0.00;0.00;;;;;;;;;;5094151;28;20028;-81
2023/10/19 15:04:46;;;;;;;0.00;0.00;;;;;;;;;;5094410;28;20375;-81
2023/10/19 15:07:12;;;;;;;0.00;0.00;;;;;;;;;;5094094;28;20377;-81
2023/10/19 15:09:37;;;;;;;0.00;0.00;;;;;;;;;;5094706;28;20070;-82
2023/10/19 15:12:03;;;;;;;0.00;0.00;;;;;;;;;;5094550;28;20059;-82
2023/10/19 15:14:28;;;;;;;0.00;0.00;;;;;;;;;;5079859;28;20464;-81
2023/10/19 15:16:54;;;;;;;0.00;0.00;;;;;;;;;;5098277;28;20040;-81
2023/10/19 15:19:19;;;;;;;0.00;0.00;;;;;;;;;;5079653;28;20024;-81
2023/10/19 15:21:45;;;;;;;0.00;0.00;;;;;;;;;;5097989;28;20688;-82
2023/10/19 15:24:12;;;;;;;0.05;0.00;;;;;;;;;;5063272;28;20032;-81
2023/10/19 15:26:38;;;;;;;0.00;0.00;;;;;;;;;;5063431;28;20020;-81
2023/10/19 15:29:05;;;;;;;0.00;0.00;;;;;;;;;;5099285;28;20031;-81
2023/10/19 15:31:30;;;;;;;0.00;0.00;;;;;;;;;;5097927;28;20023;-82
2023/10/19 15:33:57;;;;;;;0.00;0.00;;;;;;;;;;5098010;28;20525;-81
2023/10/19 15:36:22;;;;;;;0.00;0.00;;;;;;;;;;5079753;28;20036;-80
2023/10/19 15:38:49;;;;;;;0.00;0.00;;;;;;;;;;5063250;28;20334;-81
2023/10/19 15:41:15;;;;;;;0.00;0.00;;;;;;;;;;5097433;28;20093;-82
2023/10/19 15:43:41;;;;;;;0.00;0.00;;;;;;;;;;5079322;28;20024;-82
2023/10/19 15:46:12;;;;;;;0.03;0.00;;;;;;;;;;5097361;28;20361;-80
2023/10/19 15:48:38;;;;;;;0.00;0.00;;;;;;;;;;5097698;28;20075;-82
2023/10/19 15:51:04;;;;;;;0.00;0.00;;;;;;;;;;5080003;28;20061;-81
2023/10/19 15:53:32;;;;;;;0.00;0.00;;;;;;;;;;5097750;28;20032;-81
2023/10/19 15:55:58;;;;;;;0.00;0.00;;;;;;;;;;5097543;28;20357;-81
2023/10/19 15:58:24;;;;;;;0.00;0.00;;;;;;;;;;5062355;28;20028;-82
2023/10/19 16:00:50;;;;;;;0.00;0.00;;;;;;;;;;5097047;28;20061;-82
2023/10/19 16:03:15;;;;;;;0.00;0.00;;;;;;;;;;5097344;28;20123;-82
2023/10/19 16:05:41;;;;;;;0.00;0.00;;;;;;;;;;5079192;28;20027;-84
2023/10/19 16:08:06;;;;;;;0.00;0.00;;;;;;;;;;5097638;28;20032;-82
2023/10/19 16:10:32;;;;;;;0.00;0.00;;;;;;;;;;5098077;28;20039;-81
2023/10/19 16:12:57;;;;;;;0.10;0.00;;;;;;;;;;5080487;28;20032;-82
2023/10/19 16:15:23;;;;;;;0.00;0.00;;;;;;;;;;5078035;28;20522;-82
2023/10/19 16:17:50;;;;;;;0.00;0.00;;;;;;;;;;5078425;28;20027;-83
2023/10/19 16:20:16;;;;;;;0.00;0.00;;;;;;;;;;5096456;28;20656;-82
2023/10/19 16:22:41;;;;;;;0.00;0.00;;;;;;;;;;5095268;28;20035;-82
2023/10/19 16:25:07;;;;;;;0.00;0.00;;;;;;;;;;5075097;28;20024;-81
2023/10/19 16:27:33;;;;;;;0.00;0.00;;;;;;;;;;5077491;28;20063;-80
2023/10/19 16:29:59;;;;;;;0.00;0.00;;;;;;;;;;5060772;28;20063;-83
2023/10/19 16:32:24;;;;;;;0.00;0.00;;;;;;;;;;5096526;28;20028;-81
2023/10/19 16:34:50;;;;;;;0.00;0.00;;;;;;;;;;5078054;28;20422;-80
2023/10/19 16:37:17;;;;;;;0.00;0.00;;;;;;;;;;5094887;28;20210;-82
2023/10/19 16:39:42;;;;;;;0.00;0.00;;;;;;;;;;5060994;28;20110;-82
2023/10/19 16:42:08;;;;;;;0.00;0.00;;;;;;;;;;5078382;28;20127;-82
2023/10/19 16:44:34;;;;;;;0.00;0.00;;;;;;;;;;5085132;22;20071;-81
2023/10/19 16:47:00;;;;;;;0.00;0.00;;;;;;;;;;5078887;28;20105;-82
2023/10/19 16:49:25;;;;;;;0.00;0.00;;;;;;;;;;5096790;28;20465;-82
2023/10/19 16:51:51;;;;;;;0.00;0.00;;;;;;;;;;5062263;28;20081;-82
2023/10/19 16:54:17;;;;;;;0.00;0.00;;;;;;;;;;5097532;28;20032;-82
2023/10/19 16:56:49;;;;;;;0.00;0.00;;;;;;;;;;5095002;28;20039;-82
2023/10/19 16:59:15;;;;;;;0.00;0.00;;;;;;;;;;5077591;28;20128;-82
2023/10/19 17:01:41;;;;;;;0.10;0.00;;;;;;;;;;5077084;28;20399;-82
2023/10/19 17:04:07;;;;;;;0.03;0.00;;;;;;;;;;5077771;28;20020;-82
2023/10/19 17:06:32;;;;;;;0.10;0.00;;;;;;;;;;5077618;28;20469;-81
2023/10/19 17:09:01;;;;;;;0.00;0.00;;;;;;;;;;5096886;28;20020;-82
2023/10/19 17:11:27;;;;;;;0.10;0.00;;;;;;;;;;5078637;28;20067;-81
2023/10/19 17:13:55;;;;;;;0.00;0.00;;;;;;;;;;5081486;28;20028;-81
2023/10/19 17:16:21;;;;;;;0.00;0.00;;;;;;;;;;5101103;28;20369;-81
2023/10/19 17:18:46;;;;;;;0.10;0.00;;;;;;;;;;5078424;28;20032;-81
2023/10/19 17:21:12;;;;;;;0.00;0.00;;;;;;;;;;5095735;28;20092;-81
2023/10/19 17:23:39;;;;;;;0.00;0.00;;;;;;;;;;5078056;28;20054;-81
2023/10/19 17:26:05;;;;;;;0.00;0.00;;;;;;;;;;5077602;28;20349;-81
2023/10/19 17:28:31;;;;;;;0.00;0.00;;;;;;;;;;5061073;28;20039;-81
2023/10/19 17:30:56;;;;;;;0.00;0.00;;;;;;;;;;5061358;28;20118;-81
2023/10/19 17:33:22;;;;;;;0.00;0.00;;;;;;;;;;5077755;28;20038;-82
2023/10/19 17:35:49;;;;;;;0.00;0.00;;;;;;;;;;5083101;28;20058;-82
2023/10/19 17:38:15;;;;;;;0.00;0.00;;;;;;;;;;5096806;28;20101;-82
2023/10/19 17:40:40;;;;;;;0.00;0.00;;;;;;;;;;5095549;28;20028;-82
2023/10/19 17:43:09;;;;;;;0.00;0.00;;;;;;;;;;5077405;28;20032;-82
2023/10/19 17:45:35;;;;;;;0.00;0.00;;;;;;;;;;5079180;28;20037;-81
2023/10/19 17:48:00;;;;;;;0.00;0.00;;;;;;;;;;5075450;28;20032;-81
2023/10/19 17:50:26;;;;;;;0.00;0.00;;;;;;;;;;5058400;28;20111;-81
2023/10/19 17:52:51;;;;;;;0.00;0.00;;;;;;;;;;5059333;28;20124;-82
2023/10/19 17:55:18;;;;;;;0.00;0.00;;;;;;;;;;5078925;28;20035;-82
2023/10/19 17:57:47;;;;;;;0.00;0.00;;;;;;;;;;5063556;28;20036;-82
2023/10/19 18:00:13;;;;;;;0.00;0.00;;;;;;;;;;5042362;28;20418;-82
2023/10/19 18:02:38;;;;;;;0.00;0.00;;;;;;;;;;5075617;28;20058;-82
2023/10/19 18:05:06;;;;;;;0.00;0.00;;;;;;;;;;5074637;28;20052;-81
2023/10/19 18:07:31;;;;;;;0.00;0.00;;;;;;;;;;5057005;28;20434;-81
2023/10/19 18:09:57;;;;;;;0.00;0.00;;;;;;;;;;5057666;28;20044;-81
2023/10/19 18:12:23;;;;;;;0.00;0.00;;;;;;;;;;5059256;28;20028;-82